sensor_id;sensor_type;location;lat;lon;timestamp;pressure;altitude;pressure_sealevel;temperature;humidity
10079;BME280;5078;42.544;22.966;2023-01-23T00:01:55;94272.06;;;3.84;100.00
10079;BME280;5078;42.544;22.966;2023-01-23T00:04:22;94282.97;;;3.24;100.00
10079;BME280;5078;42.544;22.966;2023-01-23T00:06:49;94277.81;;;3.12;100.00
10079;BME280;5078;42.544;22.966;2023-01-23T00:09:16;94270.09;;;3.10;100.00
10079;BME280;5078;42.544;22.966;2023-01-23T00:11:44;94276.38;;;3.30;100.00
10079;BME280;5078;42.544;22.966;2023-01-23T00:14:11;94288.53;;;3.42;100.00
10079;BME280;5078;42.544;22.966;2023-01-23T00:16:37;94292.19;;;3.51;100.00
10079;BME280;5078;42.544;22.966;2023-01-23T00:19:04;94295.28;;;3.56;100.00
10079;BME280;5078;42.544;22.966;2023-01-23T00:21:31;94291.50;;;3.27;100.00
10079;BME280;5078;42.544;22.966;2023-01-23T00:23:59;94298.44;;;3.28;100.00
10079;BME280;5078;42.544;22.966;2023-01-23T00:26:28;94289.50;;;3.08;100.00
10079;BME280;5078;42.544;22.966;2023-01-23T00:28:58;94313.69;;;3.22;100.00
10079;BME280;5078;42.544;22.966;2023-01-23T00:31:26;94310.22;;;3.11;100.00
10079;BME280;5078;42.544;22.966;2023-01-23T00:33:56;94307.50;;;2.90;100.00
10079;BME280;5078;42.544;22.966;2023-01-23T00:36:23;94306.31;;;3.05;100.00
10079;BME280;5078;42.544;22.966;2023-01-23T00:38:53;94307.00;;;2.96;100.00
10079;BME280;5078;42.544;22.966;2023-01-23T00:41:20;94299.53;;;3.02;100.00
10079;BME280;5078;42.544;22.966;2023-01-23T00:43:46;94313.19;;;3.29;100.00
10079;BME280;5078;42.544;22.966;2023-01-23T00:46:17;94314.13;;;3.39;100.00
10079;BME280;5078;42.544;22.966;2023-01-23T00:48:44;94327.50;;;3.13;100.00
10079;BME280;5078;42.544;22.966;2023-01-23T00:51:11;94328.66;;;3.09;100.00
10079;BME280;5078;42.544;22.966;2023-01-23T00:53:37;94310.09;;;3.01;100.00
10079;BME280;5078;42.544;22.966;2023-01-23T00:56:05;94315.47;;;3.11;100.00
10079;BME280;5078;42.544;22.966;2023-01-23T00:58:32;94322.13;;;2.92;100.00
10079;BME280;5078;42.544;22.966;2023-01-23T01:00:59;94322.97;;;2.93;100.00
10079;BME280;5078;42.544;22.966;2023-01-23T01:03:27;94340.09;;;2.97;100.00
10079;BME280;5078;42.544;22.966;2023-01-23T01:05:54;94336.31;;;2.90;100.00
10079;BME280;5078;42.544;22.966;2023-01-23T01:08:21;94338.19;;;2.99;100.00
10079;BME280;5078;42.544;22.966;2023-01-23T01:10:47;94343.22;;;3.13;100.00
10079;BME280;5078;42.544;22.966;2023-01-23T01:13:14;94343.44;;;3.21;100.00
10079;BME280;5078;42.544;22.966;2023-01-23T01:15:44;94347.03;;;3.20;100.00
10079;BME280;5078;42.544;22.966;2023-01-23T01:18:10;94343.34;;;3.23;100.00
10079;BME280;5078;42.544;22.966;2023-01-23T01:20:39;94294.50;;;2.66;100.00
10079;BME280;5078;42.544;22.966;2023-01-23T01:23:07;94319.31;;;2.49;100.00
10079;BME280;5078;42.544;22.966;2023-01-23T01:25:33;94327.22;;;2.71;100.00
10079;BME280;5078;42.544;22.966;2023-01-23T01:28:00;94321.63;;;2.76;100.00
10079;BME280;5078;42.544;22.966;2023-01-23T01:30:27;94322.97;;;2.93;100.00
10079;BME280;5078;42.544;22.966;2023-01-23T01:32:55;94338.19;;;2.88;100.00
10079;BME280;5078;42.544;22.966;2023-01-23T01:35:23;94330.75;;;2.59;100.00
10079;BME280;5078;42.544;22.966;2023-01-23T01:37:51;94335.81;;;2.85;100.00
10079;BME280;5078;42.544;22.966;2023-01-23T01:40:19;94333.19;;;2.96;100.00
10079;BME280;5078;42.544;22.966;2023-01-23T01:42:49;94340.00;;;3.10;100.00
10079;BME280;5078;42.544;22.966;2023-01-23T01:46:03;94340.94;;;2.86;100.00
10079;BME280;5078;42.544;22.966;2023-01-23T01:48:34;94329.88;;;2.83;100.00
10079;BME280;5078;42.544;22.966;2023-01-23T01:51:06;94326.53;;;3.03;100.00
10079;BME280;5078;42.544;22.966;2023-01-23T01:53:36;94326.75;;;2.89;100.00
10079;BME280;5078;42.544;22.966;2023-01-23T01:56:04;94321.91;;;2.95;100.00
10079;BME280;5078;42.544;22.966;2023-01-23T01:58:33;94325.91;;;2.66;100.00
10079;BME280;5078;42.544;22.966;2023-01-23T02:01:00;94320.22;;;2.94;100.00
10079;BME280;5078;42.544;22.966;2023-01-23T02:03:27;94326.06;;;2.98;100.00
10079;BME280;5078;42.544;22.966;2023-01-23T02:05:53;94316.53;;;3.08;100.00
10079;BME280;5078;42.544;22.966;2023-01-23T02:08:23;94320.69;;;3.11;100.00
10079;BME280;5078;42.544;22.966;2023-01-23T02:10:54;94315.56;;;2.75;100.00
10079;BME280;5078;42.544;22.966;2023-01-23T02:13:23;94315.47;;;2.88;100.00
10079;BME280;5078;42.544;22.966;2023-01-23T02:15:55;94314.63;;;2.99;100.00
10079;BME280;5078;42.544;22.966;2023-01-23T02:18:22;94320.94;;;3.08;100.00
10079;BME280;5078;42.544;22.966;2023-01-23T02:20:51;94321.91;;;3.18;100.00
10079;BME280;5078;42.544;22.966;2023-01-23T02:23:23;94323.91;;;3.26;100.00
10079;BME280;5078;42.544;22.966;2023-01-23T02:25:58;94309.16;;;3.13;100.00
10079;BME280;5078;42.544;22.966;2023-01-23T02:28:36;94323.69;;;3.06;100.00
10079;BME280;5078;42.544;22.966;2023-01-23T02:31:03;94327.94;;;2.73;100.00
10079;BME280;5078;42.544;22.966;2023-01-23T02:33:46;94325.09;;;2.65;100.00
10079;BME280;5078;42.544;22.966;2023-01-23T02:36:15;94325.09;;;2.88;100.00
10079;BME280;5078;42.544;22.966;2023-01-23T02:38:48;94325.81;;;3.01;100.00
10079;BME280;5078;42.544;22.966;2023-01-23T02:41:24;94315.09;;;2.81;100.00
10079;BME280;5078;42.544;22.966;2023-01-23T02:43:53;94331.31;;;2.98;100.00
10079;BME280;5078;42.544;22.966;2023-01-23T02:46:23;94329.50;;;2.98;100.00
10079;BME280;5078;42.544;22.966;2023-01-23T02:48:49;94320.78;;;2.64;100.00
10079;BME280;5078;42.544;22.966;2023-01-23T02:51:16;94312.44;;;2.48;100.00
10079;BME280;5078;42.544;22.966;2023-01-23T02:53:45;94327.91;;;2.51;100.00
10079;BME280;5078;42.544;22.966;2023-01-23T02:56:12;94326.88;;;2.76;100.00
10079;BME280;5078;42.544;22.966;2023-01-23T02:58:40;94334.84;;;2.74;100.00
10079;BME280;5078;42.544;22.966;2023-01-23T03:01:25;94331.53;;;2.72;100.00
10079;BME280;5078;42.544;22.966;2023-01-23T03:03:53;94337.69;;;2.71;100.00
10079;BME280;5078;42.544;22.966;2023-01-23T03:06:22;94297.22;;;2.53;100.00
10079;BME280;5078;42.544;22.966;2023-01-23T03:08:48;94342.81;;;2.73;100.00
10079;BME280;5078;42.544;22.966;2023-01-23T03:11:17;94336.41;;;2.88;100.00
10079;BME280;5078;42.544;22.966;2023-01-23T03:13:46;94335.31;;;2.68;100.00
10079;BME280;5078;42.544;22.966;2023-01-23T03:16:13;94342.97;;;2.83;100.00
10079;BME280;5078;42.544;22.966;2023-01-23T03:18:40;94342.31;;;2.56;100.00
10079;BME280;5078;42.544;22.966;2023-01-23T03:21:07;94341.91;;;2.38;100.00
10079;BME280;5078;42.544;22.966;2023-01-23T03:23:34;94340.66;;;2.55;100.00
10079;BME280;5078;42.544;22.966;2023-01-23T03:26:01;94334.59;;;2.66;100.00
10079;BME280;5078;42.544;22.966;2023-01-23T03:28:28;94332.69;;;2.79;100.00
10079;BME280;5078;42.544;22.966;2023-01-23T03:31:14;94336.91;;;2.35;100.00
10079;BME280;5078;42.544;22.966;2023-01-23T03:33:42;94319.31;;;2.02;100.00
10079;BME280;5078;42.544;22.966;2023-01-23T03:36:09;94319.66;;;2.33;100.00
10079;BME280;5078;42.544;22.966;2023-01-23T03:38:36;94328.66;;;2.18;100.00
10079;BME280;5078;42.544;22.966;2023-01-23T03:41:03;94322.41;;;2.43;100.00
10079;BME280;5078;42.544;22.966;2023-01-23T03:43:47;94301.00;;;2.37;100.00
10079;BME280;5078;42.544;22.966;2023-01-23T03:46:15;94314.47;;;2.55;100.00
10079;BME280;5078;42.544;22.966;2023-01-23T03:48:42;94314.03;;;2.73;100.00
10079;BME280;5078;42.544;22.966;2023-01-23T03:51:09;94317.22;;;2.19;100.00
10079;BME280;5078;42.544;22.966;2023-01-23T03:53:35;94319.94;;;2.52;100.00
10079;BME280;5078;42.544;22.966;2023-01-23T03:56:02;94322.13;;;2.70;100.00
10079;BME280;5078;42.544;22.966;2023-01-23T03:58:29;94316.53;;;2.86;100.00
10079;BME280;5078;42.544;22.966;2023-01-23T04:00:56;94316.78;;;2.83;100.00
10079;BME280;5078;42.544;22.966;2023-01-23T04:03:24;94319.38;;;2.83;100.00
10079;BME280;5078;42.544;22.966;2023-01-23T04:05:54;94313.44;;;2.80;100.00
10079;BME280;5078;42.544;22.966;2023-01-23T04:08:22;94322.97;;;3.04;100.00
10079;BME280;5078;42.544;22.966;2023-01-23T04:10:49;94295.47;;;2.98;100.00
10079;BME280;5078;42.544;22.966;2023-01-23T04:13:15;94336.78;;;3.17;100.00
10079;BME280;5078;42.544;22.966;2023-01-23T04:15:42;94337.63;;;3.18;100.00
10079;BME280;5078;42.544;22.966;2023-01-23T04:18:09;94341.06;;;3.18;100.00
10079;BME280;5078;42.544;22.966;2023-01-23T04:20:37;94341.66;;;3.33;100.00
10079;BME280;5078;42.544;22.966;2023-01-23T04:23:04;94342.25;;;3.03;100.00
10079;BME280;5078;42.544;22.966;2023-01-23T04:25:31;94341.78;;;2.98;100.00
10079;BME280;5078;42.544;22.966;2023-01-23T04:27:58;94341.56;;;3.12;100.00
10079;BME280;5078;42.544;22.966;2023-01-23T04:30:24;94337.25;;;2.89;100.00
10079;BME280;5078;42.544;22.966;2023-01-23T04:32:51;94338.28;;;2.64;100.00
10079;BME280;5078;42.544;22.966;2023-01-23T04:35:18;94303.56;;;2.73;100.00
10079;BME280;5078;42.544;22.966;2023-01-23T04:37:46;94329.84;;;2.94;100.00
10079;BME280;5078;42.544;22.966;2023-01-23T04:40:13;94337.63;;;3.18;100.00
10079;BME280;5078;42.544;22.966;2023-01-23T04:42:39;94334.84;;;3.19;100.00
10079;BME280;5078;42.544;22.966;2023-01-23T04:45:07;94321.06;;;2.95;100.00
10079;BME280;5078;42.544;22.966;2023-01-23T04:47:34;94328.19;;;2.93;100.00
10079;BME280;5078;42.544;22.966;2023-01-23T04:50:02;94331.31;;;2.98;100.00
10079;BME280;5078;42.544;22.966;2023-01-23T04:52:29;94332.50;;;3.05;100.00
10079;BME280;5078;42.544;22.966;2023-01-23T04:54:57;94347.34;;;2.82;100.00
10079;BME280;5078;42.544;22.966;2023-01-23T04:57:24;94354.25;;;2.94;100.00
10079;BME280;5078;42.544;22.966;2023-01-23T04:59:51;94362.66;;;2.53;100.00
10079;BME280;5078;42.544;22.966;2023-01-23T05:02:18;94359.13;;;2.76;100.00
10079;BME280;5078;42.544;22.966;2023-01-23T05:04:45;94359.78;;;2.56;100.00
10079;BME280;5078;42.544;22.966;2023-01-23T05:07:11;94354.94;;;2.74;100.00
10079;BME280;5078;42.544;22.966;2023-01-23T05:09:38;94355.94;;;2.37;100.00
10079;BME280;5078;42.544;22.966;2023-01-23T05:12:07;94345.09;;;2.31;100.00
10079;BME280;5078;42.544;22.966;2023-01-23T05:14:33;94375.09;;;2.85;100.00
10079;BME280;5078;42.544;22.966;2023-01-23T05:17:00;94382.13;;;2.95;100.00
10079;BME280;5078;42.544;22.966;2023-01-23T05:19:27;94387.34;;;2.84;100.00
10079;BME280;5078;42.544;22.966;2023-01-23T05:21:53;94378.34;;;3.11;100.00
10079;BME280;5078;42.544;22.966;2023-01-23T05:24:20;94372.00;;;3.58;100.00
10079;BME280;5078;42.544;22.966;2023-01-23T05:26:47;94368.69;;;3.56;100.00
10079;BME280;5078;42.544;22.966;2023-01-23T05:29:15;94365.34;;;3.43;100.00
10079;BME280;5078;42.544;22.966;2023-01-23T05:31:42;94355.34;;;3.26;100.00
10079;BME280;5078;42.544;22.966;2023-01-23T05:34:08;94378.72;;;3.17;100.00
10079;BME280;5078;42.544;22.966;2023-01-23T05:36:35;94363.19;;;3.14;100.00
10079;BME280;5078;42.544;22.966;2023-01-23T05:39:02;94388.84;;;2.64;100.00
10079;BME280;5078;42.544;22.966;2023-01-23T05:41:29;94394.41;;;2.95;100.00
10079;BME280;5078;42.544;22.966;2023-01-23T05:43:55;94381.63;;;2.79;100.00
10079;BME280;5078;42.544;22.966;2023-01-23T05:46:24;94373.66;;;2.80;100.00
10079;BME280;5078;42.544;22.966;2023-01-23T05:48:51;94391.59;;;2.74;100.00
10079;BME280;5078;42.544;22.966;2023-01-23T05:51:18;94392.56;;;2.73;100.00
10079;BME280;5078;42.544;22.966;2023-01-23T05:53:44;94393.41;;;2.73;100.00
10079;BME280;5078;42.544;22.966;2023-01-23T05:56:11;94373.34;;;2.50;100.00
10079;BME280;5078;42.544;22.966;2023-01-23T05:58:38;94399.81;;;2.69;100.00
10079;BME280;5078;42.544;22.966;2023-01-23T06:01:05;94401.81;;;2.66;100.00
10079;BME280;5078;42.544;22.966;2023-01-23T06:03:33;94416.06;;;2.50;100.00
10079;BME280;5078;42.544;22.966;2023-01-23T06:06:00;94422.84;;;2.53;100.00
10079;BME280;5078;42.544;22.966;2023-01-23T06:08:27;94418.03;;;2.82;100.00
10079;BME280;5078;42.544;22.966;2023-01-23T06:10:56;94418.66;;;2.86;100.00
10079;BME280;5078;42.544;22.966;2023-01-23T06:13:24;94433.88;;;2.80;100.00
10079;BME280;5078;42.544;22.966;2023-01-23T06:15:52;94428.69;;;3.03;100.00
10079;BME280;5078;42.544;22.966;2023-01-23T06:18:19;94428.56;;;2.93;100.00
10079;BME280;5078;42.544;22.966;2023-01-23T06:20:59;94415.38;;;3.17;100.00
10079;BME280;5078;42.544;22.966;2023-01-23T06:23:35;94419.19;;;3.36;100.00
10079;BME280;5078;42.544;22.966;2023-01-23T06:26:10;94428.13;;;3.33;100.00
10079;BME280;5078;42.544;22.966;2023-01-23T06:28:57;94424.81;;;3.42;100.00
10079;BME280;5078;42.544;22.966;2023-01-23T06:31:26;94424.44;;;3.36;100.00
10079;BME280;5078;42.544;22.966;2023-01-23T06:33:58;94429.94;;;3.33;100.00
10079;BME280;5078;42.544;22.966;2023-01-23T06:36:33;94435.06;;;3.45;100.00
10079;BME280;5078;42.544;22.966;2023-01-23T06:39:05;94444.59;;;3.35;100.00
10079;BME280;5078;42.544;22.966;2023-01-23T06:41:34;94440.66;;;3.52;100.00
10079;BME280;5078;42.544;22.966;2023-01-23T06:44:03;94426.25;;;3.35;100.00
10079;BME280;5078;42.544;22.966;2023-01-23T06:46:32;94451.13;;;3.30;100.00
10079;BME280;5078;42.544;22.966;2023-01-23T06:48:59;94433.88;;;3.27;100.00
10079;BME280;5078;42.544;22.966;2023-01-23T06:51:26;94443.38;;;3.28;100.00
10079;BME280;5078;42.544;22.966;2023-01-23T06:53:54;94441.81;;;3.37;100.00
10079;BME280;5078;42.544;22.966;2023-01-23T06:56:21;94438.34;;;3.14;100.00
10079;BME280;5078;42.544;22.966;2023-01-23T06:58:48;94433.00;;;3.27;100.00
10079;BME280;5078;42.544;22.966;2023-01-23T07:01:16;94425.88;;;3.40;100.00
10079;BME280;5078;42.544;22.966;2023-01-23T07:03:44;94448.75;;;3.60;100.00
10079;BME280;5078;42.544;22.966;2023-01-23T07:06:12;94444.97;;;3.64;100.00
10079;BME280;5078;42.544;22.966;2023-01-23T07:08:39;94466.03;;;3.74;100.00
10079;BME280;5078;42.544;22.966;2023-01-23T07:11:08;94469.75;;;3.83;100.00
10079;BME280;5078;42.544;22.966;2023-01-23T07:13:36;94472.22;;;4.07;100.00
10079;BME280;5078;42.544;22.966;2023-01-23T07:16:03;94456.84;;;3.91;100.00
10079;BME280;5078;42.544;22.966;2023-01-23T07:18:30;94462.69;;;3.95;100.00
10079;BME280;5078;42.544;22.966;2023-01-23T07:20:57;94457.75;;;4.24;100.00
10079;BME280;5078;42.544;22.966;2023-01-23T07:23:25;94456.66;;;4.38;100.00
10079;BME280;5078;42.544;22.966;2023-01-23T07:25:57;94455.38;;;4.32;100.00
10079;BME280;5078;42.544;22.966;2023-01-23T07:28:26;94455.69;;;4.39;100.00
10079;BME280;5078;42.544;22.966;2023-01-23T07:30:53;94454.22;;;4.57;100.00
10079;BME280;5078;42.544;22.966;2023-01-23T07:33:20;94466.47;;;4.68;100.00
10079;BME280;5078;42.544;22.966;2023-01-23T07:35:46;94472.78;;;4.97;100.00
10079;BME280;5078;42.544;22.966;2023-01-23T07:38:13;94469.34;;;5.18;100.00
10079;BME280;5078;42.544;22.966;2023-01-23T07:40:40;94475.16;;;5.01;100.00
10079;BME280;5078;42.544;22.966;2023-01-23T07:43:08;94471.97;;;4.97;100.00
10079;BME280;5078;42.544;22.966;2023-01-23T07:45:37;94483.63;;;5.04;100.00
10079;BME280;5078;42.544;22.966;2023-01-23T07:48:04;94490.03;;;5.11;100.00
10079;BME280;5078;42.544;22.966;2023-01-23T07:50:30;94485.81;;;5.41;100.00
10079;BME280;5078;42.544;22.966;2023-01-23T07:52:57;94487.19;;;5.66;100.00
10079;BME280;5078;42.544;22.966;2023-01-23T07:55:24;94497.94;;;5.84;100.00
10079;BME280;5078;42.544;22.966;2023-01-23T07:57:51;94497.16;;;6.14;100.00
10079;BME280;5078;42.544;22.966;2023-01-23T08:00:19;94479.03;;;6.31;100.00
10079;BME280;5078;42.544;22.966;2023-01-23T08:02:47;94485.75;;;6.64;100.00
10079;BME280;5078;42.544;22.966;2023-01-23T08:05:14;94495.47;;;6.73;100.00
10079;BME280;5078;42.544;22.966;2023-01-23T08:07:41;94500.22;;;6.79;100.00
10079;BME280;5078;42.544;22.966;2023-01-23T08:10:09;94493.25;;;6.78;100.00
10079;BME280;5078;42.544;22.966;2023-01-23T08:12:36;94506.88;;;6.93;100.00
10079;BME280;5078;42.544;22.966;2023-01-23T08:15:03;94499.94;;;6.92;100.00
10079;BME280;5078;42.544;22.966;2023-01-23T08:17:30;94493.16;;;6.89;100.00
10079;BME280;5078;42.544;22.966;2023-01-23T08:19:58;94493.00;;;6.91;100.00
10079;BME280;5078;42.544;22.966;2023-01-23T08:22:25;94493.00;;;6.91;100.00
10079;BME280;5078;42.544;22.966;2023-01-23T08:24:52;94492.31;;;6.89;100.00
10079;BME280;5078;42.544;22.966;2023-01-23T08:27:19;94495.09;;;6.87;100.00
10079;BME280;5078;42.544;22.966;2023-01-23T08:29:45;94478.84;;;6.92;100.00
10079;BME280;5078;42.544;22.966;2023-01-23T08:32:12;94470.78;;;6.84;100.00
10079;BME280;5078;42.544;22.966;2023-01-23T08:34:39;94476.63;;;6.97;100.00
10079;BME280;5078;42.544;22.966;2023-01-23T08:37:08;94483.84;;;7.15;100.00
10079;BME280;5078;42.544;22.966;2023-01-23T08:39:35;94482.16;;;7.13;100.00
10079;BME280;5078;42.544;22.966;2023-01-23T08:42:02;94491.47;;;7.27;100.00
10079;BME280;5078;42.544;22.966;2023-01-23T08:44:28;94480.34;;;7.43;100.00
10079;BME280;5078;42.544;22.966;2023-01-23T08:46:59;94505.50;;;7.28;100.00
10079;BME280;5078;42.544;22.966;2023-01-23T08:49:26;94504.53;;;7.29;100.00
10079;BME280;5078;42.544;22.966;2023-01-23T08:51:53;94501.19;;;7.27;100.00
10079;BME280;5078;42.544;22.966;2023-01-23T08:54:22;94510.34;;;7.32;100.00
10079;BME280;5078;42.544;22.966;2023-01-23T08:56:49;94515.50;;;7.34;100.00
10079;BME280;5078;42.544;22.966;2023-01-23T08:59:16;94510.88;;;7.36;100.00
10079;BME280;5078;42.544;22.966;2023-01-23T09:01:42;94513.53;;;7.36;100.00
10079;BME280;5078;42.544;22.966;2023-01-23T09:04:10;94511.28;;;7.41;100.00
10079;BME280;5078;42.544;22.966;2023-01-23T09:06:37;94519.78;;;7.45;100.00
10079;BME280;5078;42.544;22.966;2023-01-23T09:09:04;94516.31;;;7.54;100.00
10079;BME280;5078;42.544;22.966;2023-01-23T09:11:32;94522.00;;;7.40;100.00
10079;BME280;5078;42.544;22.966;2023-01-23T09:13:58;94542.94;;;7.41;100.00
10079;BME280;5078;42.544;22.966;2023-01-23T09:16:25;94526.72;;;7.36;100.00
10079;BME280;5078;42.544;22.966;2023-01-23T09:18:54;94511.47;;;7.40;100.00
10079;BME280;5078;42.544;22.966;2023-01-23T09:21:21;94507.13;;;7.39;100.00
10079;BME280;5078;42.544;22.966;2023-01-23T09:23:48;94505.19;;;7.50;100.00
10079;BME280;5078;42.544;22.966;2023-01-23T09:26:14;94513.78;;;7.62;100.00
10079;BME280;5078;42.544;22.966;2023-01-23T09:28:42;94516.00;;;7.67;100.00
10079;BME280;5078;42.544;22.966;2023-01-23T09:31:10;94490.16;;;7.61;100.00
10079;BME280;5078;42.544;22.966;2023-01-23T09:33:38;94506.38;;;7.75;100.00
10079;BME280;5078;42.544;22.966;2023-01-23T09:36:06;94499.56;;;7.83;100.00
10079;BME280;5078;42.544;22.966;2023-01-23T09:38:33;94500.13;;;7.86;100.00
10079;BME280;5078;42.544;22.966;2023-01-23T09:41:07;94513.94;;;8.08;100.00
10079;BME280;5078;42.544;22.966;2023-01-23T09:43:38;94513.72;;;7.91;100.00
10079;BME280;5078;42.544;22.966;2023-01-23T09:46:15;94515.13;;;7.86;100.00
10079;BME280;5078;42.544;22.966;2023-01-23T09:48:44;94518.13;;;8.00;100.00
10079;BME280;5078;42.544;22.966;2023-01-23T09:51:17;94519.84;;;7.92;100.00
10079;BME280;5078;42.544;22.966;2023-01-23T09:53:45;94522.72;;;7.98;100.00
10079;BME280;5078;42.544;22.966;2023-01-23T09:56:18;94502.28;;;8.00;100.00
10079;BME280;5078;42.544;22.966;2023-01-23T09:58:55;94494.63;;;8.07;100.00
10079;BME280;5078;42.544;22.966;2023-01-23T10:01:27;94498.66;;;8.11;100.00
10079;BME280;5078;42.544;22.966;2023-01-23T10:03:54;94486.16;;;8.04;100.00
10079;BME280;5078;42.544;22.966;2023-01-23T10:06:24;94494.72;;;8.15;100.00
10079;BME280;5078;42.544;22.966;2023-01-23T10:09:19;94485.94;;;8.25;100.00
10079;BME280;5078;42.544;22.966;2023-01-23T10:11:57;94481.63;;;8.24;100.00
10079;BME280;5078;42.544;22.966;2023-01-23T10:14:55;94481.56;;;8.33;100.00
10079;BME280;5078;42.544;22.966;2023-01-23T10:17:36;94482.94;;;8.37;100.00
10079;BME280;5078;42.544;22.966;2023-01-23T10:20:18;94480.44;;;8.36;100.00
10079;BME280;5078;42.544;22.966;2023-01-23T10:22:56;94480.91;;;8.31;100.00
10079;BME280;5078;42.544;22.966;2023-01-23T10:25:26;94474.16;;;8.19;100.00
10079;BME280;5078;42.544;22.966;2023-01-23T10:28:07;94460.38;;;8.15;100.00
10079;BME280;5078;42.544;22.966;2023-01-23T10:30:42;94478.25;;;8.31;100.00
10079;BME280;5078;42.544;22.966;2023-01-23T10:33:13;94451.44;;;8.26;100.00
10079;BME280;5078;42.544;22.966;2023-01-23T10:35:45;94464.06;;;8.32;100.00
10079;BME280;5078;42.544;22.966;2023-01-23T10:38:23;94468.28;;;8.25;100.00
10079;BME280;5078;42.544;22.966;2023-01-23T10:40:51;94468.66;;;8.30;100.00
10079;BME280;5078;42.544;22.966;2023-01-23T10:43:35;94460.72;;;8.40;100.00
10079;BME280;5078;42.544;22.966;2023-01-23T10:46:08;94469.28;;;8.52;100.00
10079;BME280;5078;42.544;22.966;2023-01-23T10:48:44;94478.94;;;8.61;100.00
10079;BME280;5078;42.544;22.966;2023-01-23T10:51:43;94471.75;;;8.53;100.00
10079;BME280;5078;42.544;22.966;2023-01-23T10:54:14;94469.84;;;8.46;100.00
10079;BME280;5078;42.544;22.966;2023-01-23T10:56:50;94467.53;;;8.60;100.00
10079;BME280;5078;42.544;22.966;2023-01-23T10:59:24;94462.00;;;8.26;100.00
10079;BME280;5078;42.544;22.966;2023-01-23T11:02:00;94461.53;;;8.40;100.00
10079;BME280;5078;42.544;22.966;2023-01-23T11:04:32;94457.69;;;8.25;100.00
10079;BME280;5078;42.544;22.966;2023-01-23T11:07:04;94459.00;;;8.49;100.00
10079;BME280;5078;42.544;22.966;2023-01-23T11:09:48;94462.31;;;8.51;100.00
10079;BME280;5078;42.544;22.966;2023-01-23T11:12:18;94450.00;;;8.41;100.00
10079;BME280;5078;42.544;22.966;2023-01-23T11:14:46;94469.03;;;8.45;100.00
10079;BME280;5078;42.544;22.966;2023-01-23T11:17:19;94427.47;;;8.37;100.00
10079;BME280;5078;42.544;22.966;2023-01-23T11:19:49;94455.69;;;8.47;100.00
10079;BME280;5078;42.544;22.966;2023-01-23T11:22:32;94461.38;;;8.70;100.00
10079;BME280;5078;42.544;22.966;2023-01-23T11:25:28;94465.84;;;8.87;100.00
10079;BME280;5078;42.544;22.966;2023-01-23T11:27:57;94467.28;;;8.81;100.00
10079;BME280;5078;42.544;22.966;2023-01-23T11:30:34;94461.63;;;8.76;100.00
10079;BME280;5078;42.544;22.966;2023-01-23T11:33:11;94467.94;;;8.83;100.00
10079;BME280;5078;42.544;22.966;2023-01-23T11:35:57;94470.44;;;8.85;100.00
10079;BME280;5078;42.544;22.966;2023-01-23T11:38:30;94472.41;;;8.83;100.00
10079;BME280;5078;42.544;22.966;2023-01-23T11:41:01;94449.66;;;8.72;100.00
10079;BME280;5078;42.544;22.966;2023-01-23T11:43:29;94451.03;;;8.76;100.00
10079;BME280;5078;42.544;22.966;2023-01-23T11:46:18;94443.19;;;8.84;100.00
10079;BME280;5078;42.544;22.966;2023-01-23T11:49:07;94453.25;;;8.99;100.00
10079;BME280;5078;42.544;22.966;2023-01-23T11:51:45;94451.63;;;9.06;100.00
10079;BME280;5078;42.544;22.966;2023-01-23T11:54:32;94450.50;;;9.09;100.00
10079;BME280;5078;42.544;22.966;2023-01-23T11:57:10;94453.97;;;9.27;100.00
10079;BME280;5078;42.544;22.966;2023-01-23T11:59:49;94455.09;;;9.24;100.00
10079;BME280;5078;42.544;22.966;2023-01-23T12:02:38;94457.47;;;9.10;100.00
10079;BME280;5078;42.544;22.966;2023-01-23T12:05:23;94443.97;;;9.21;100.00
10079;BME280;5078;42.544;22.966;2023-01-23T12:08:04;94446.78;;;9.19;100.00
10079;BME280;5078;42.544;22.966;2023-01-23T12:10:46;94436.03;;;9.39;100.00
10079;BME280;5078;42.544;22.966;2023-01-23T12:13:36;94442.28;;;9.38;100.00
10079;BME280;5078;42.544;22.966;2023-01-23T12:16:18;94433.06;;;9.42;100.00
10079;BME280;5078;42.544;22.966;2023-01-23T12:18:59;94439.56;;;9.47;100.00
10079;BME280;5078;42.544;22.966;2023-01-23T12:21:36;94445.47;;;9.41;100.00
10079;BME280;5078;42.544;22.966;2023-01-23T12:24:16;94442.75;;;9.51;100.00
10079;BME280;5078;42.544;22.966;2023-01-23T12:26:57;94457.47;;;9.54;100.00
10079;BME280;5078;42.544;22.966;2023-01-23T12:29:45;94460.06;;;9.45;100.00
10079;BME280;5078;42.544;22.966;2023-01-23T12:32:31;94450.22;;;9.38;100.00
10079;BME280;5078;42.544;22.966;2023-01-23T12:35:11;94434.53;;;9.18;100.00
10079;BME280;5078;42.544;22.966;2023-01-23T12:37:56;94448.13;;;9.23;100.00
10079;BME280;5078;42.544;22.966;2023-01-23T12:40:30;94448.31;;;9.48;100.00
10079;BME280;5078;42.544;22.966;2023-01-23T12:43:03;94429.50;;;9.51;100.00
10079;BME280;5078;42.544;22.966;2023-01-23T12:45:36;94463.19;;;9.67;100.00
10079;BME280;5078;42.544;22.966;2023-01-23T12:48:11;94459.50;;;9.86;100.00
10079;BME280;5078;42.544;22.966;2023-01-23T12:50:41;94458.88;;;9.92;100.00
10079;BME280;5078;42.544;22.966;2023-01-23T12:53:12;94461.03;;;9.88;100.00
10079;BME280;5078;42.544;22.966;2023-01-23T12:55:54;94458.22;;;9.98;100.00
10079;BME280;5078;42.544;22.966;2023-01-23T12:58:25;94451.19;;;10.07;100.00
10079;BME280;5078;42.544;22.966;2023-01-23T13:01:04;94448.56;;;10.15;100.00
10079;BME280;5078;42.544;22.966;2023-01-23T13:03:44;94447.84;;;10.05;100.00
10079;BME280;5078;42.544;22.966;2023-01-23T13:06:30;94449.53;;;9.80;100.00
10079;BME280;5078;42.544;22.966;2023-01-23T13:09:04;94443.44;;;9.87;100.00
10079;BME280;5078;42.544;22.966;2023-01-23T13:11:41;94428.88;;;9.57;100.00
10079;BME280;5078;42.544;22.966;2023-01-23T13:14:21;94441.22;;;9.75;100.00
10079;BME280;5078;42.544;22.966;2023-01-23T13:16:51;94450.72;;;9.85;100.00
10079;BME280;5078;42.544;22.966;2023-01-23T13:19:23;94447.97;;;9.69;100.00